createdAt,value
2023-01-07T00:00:26.346Z,100569.93
2023-01-07T00:03:16.992Z,100577.95
2023-01-07T00:05:47.322Z,100579.65
2023-01-07T00:08:17.454Z,100585.39
2023-01-07T00:10:47.585Z,100587.15
2023-01-07T00:13:18.099Z,100589.52
2023-01-07T00:15:48.554Z,100590.28
2023-01-07T00:18:19.116Z,100603.57
2023-01-07T00:20:49.515Z,100609.70
2023-01-07T00:23:19.615Z,100607.35
2023-01-07T00:25:50.080Z,100606.88
2023-01-07T00:28:20.492Z,100608.61
2023-01-07T00:30:51.224Z,100615.20
2023-01-07T00:33:22.320Z,100618.54
2023-01-07T00:36:00.396Z,100620.70
2023-01-07T00:38:31.177Z,100619.56
2023-01-07T00:41:01.564Z,100625.34
2023-01-07T00:43:32.139Z,100625.63
2023-01-07T00:46:02.373Z,100628.89
2023-01-07T00:48:32.596Z,100620.70
2023-01-07T00:51:03.051Z,100611.49
2023-01-07T00:53:33.687Z,100610.70
2023-01-07T00:56:04.436Z,100612.23
2023-01-07T00:58:35.247Z,100614.27
2023-01-07T01:01:07.221Z,100620.61
2023-01-07T01:03:38.691Z,100626.52
2023-01-07T01:06:13.321Z,100629.27
2023-01-07T01:08:44.769Z,100648.20
2023-01-07T01:11:16.550Z,100648.52
2023-01-07T01:13:47.443Z,100646.80
2023-01-07T01:16:18.894Z,100650.86
2023-01-07T01:18:49.256Z,100648.05
2023-01-07T01:21:19.620Z,100650.61
2023-01-07T01:23:49.700Z,100645.59
2023-01-07T01:26:20.903Z,100644.77
2023-01-07T01:28:51.291Z,100643.32
2023-01-07T01:31:22.668Z,100644.66
2023-01-07T01:33:55.819Z,100641.11
2023-01-07T01:36:26.235Z,100641.96
2023-01-07T01:38:58.660Z,100641.81
2023-01-07T01:41:30.247Z,100645.39
2023-01-07T01:44:01.706Z,100647.75
2023-01-07T01:46:38.740Z,100654.42
2023-01-07T01:49:20.605Z,100650.13
2023-01-07T01:51:56.940Z,100651.10
2023-01-07T01:54:29.195Z,100652.73
2023-01-07T01:57:03.303Z,100654.58
2023-01-07T01:59:38.516Z,100653.18
2023-01-07T02:02:11.294Z,100657.30
2023-01-07T02:04:42.183Z,100659.80
2023-01-07T02:07:15.547Z,100658.45
2023-01-07T02:09:57.204Z,100655.48
2023-01-07T02:12:40.320Z,100656.10
2023-01-07T02:15:13.603Z,100657.66
2023-01-07T02:18:08.670Z,100655.18
2023-01-07T02:20:53.351Z,100651.52
2023-01-07T02:24:06.502Z,100652.64
2023-01-07T02:27:10.746Z,100653.15
2023-01-07T02:30:09.448Z,100649.02
2023-01-07T02:32:57.656Z,100648.83
2023-01-07T02:35:40.382Z,100646.88
2023-01-07T02:38:19.234Z,100646.60
2023-01-07T02:40:59.376Z,100650.24
2023-01-07T02:43:38.214Z,100649.20
2023-01-07T02:46:17.217Z,100649.52
2023-01-07T02:48:47.667Z,100645.45
2023-01-07T02:51:17.934Z,100646.57
2023-01-07T02:53:49.913Z,100648.40
2023-01-07T02:56:37.340Z,100647.69
2023-01-07T02:59:23.248Z,100648.08
2023-01-07T03:02:19.296Z,100651.02
2023-01-07T03:05:16.608Z,100650.06
2023-01-07T03:08:08.412Z,100649.19
2023-01-07T03:10:46.374Z,100647.41
2023-01-07T03:13:23.764Z,100649.69
2023-01-07T03:16:03.676Z,100653.39
2023-01-07T03:18:38.131Z,100648.94
2023-01-07T03:21:12.443Z,100649.70
2023-01-07T03:23:48.374Z,100651.35
2023-01-07T03:26:23.950Z,100653.46
2023-01-07T03:28:56.405Z,100655.91
2023-01-07T03:31:28.528Z,100656.69
2023-01-07T03:34:02.574Z,100653.23
2023-01-07T03:36:38.253Z,100655.56
2023-01-07T03:39:10.860Z,100658.86
2023-01-07T03:42:00.079Z,100657.11
2023-01-07T03:44:31.526Z,100661.27
2023-01-07T03:47:02.050Z,100657.86
2023-01-07T03:49:33.016Z,100654.70
2023-01-07T03:52:03.432Z,100656.66
2023-01-07T03:54:35.056Z,100653.31
2023-01-07T03:57:06.019Z,100653.11
2023-01-07T03:59:37.339Z,100653.02
2023-01-07T04:02:08.248Z,100651.83
2023-01-07T04:04:38.848Z,100652.16
2023-01-07T04:07:09.264Z,100655.34
2023-01-07T04:09:39.174Z,100657.23
2023-01-07T04:12:10.740Z,100655.58
2023-01-07T04:14:41.386Z,100659.36
2023-01-07T04:17:11.842Z,100660.25
2023-01-07T04:19:41.982Z,100661.39
2023-01-07T04:22:13.137Z,100657.16
2023-01-07T04:24:43.501Z,100656.66
2023-01-07T04:27:14.402Z,100652.31
2023-01-07T04:29:45.163Z,100652.29
2023-01-07T04:32:15.625Z,100651.80
2023-01-07T04:34:46.086Z,100652.52
2023-01-07T04:37:16.718Z,100648.66
2023-01-07T04:39:46.941Z,100648.00
2023-01-07T04:42:17.457Z,100650.44
2023-01-07T04:44:47.548Z,100655.40
2023-01-07T04:47:18.395Z,100655.59
2023-01-07T04:49:49.060Z,100658.27
2023-01-07T04:52:19.460Z,100657.23
2023-01-07T04:54:49.663Z,100654.33
2023-01-07T04:57:20.158Z,100645.38
2023-01-07T04:59:50.985Z,100643.83
2023-01-07T05:02:21.572Z,100649.98
2023-01-07T05:04:52.184Z,100664.89
2023-01-07T05:07:22.721Z,100675.34
2023-01-07T05:09:53.549Z,100679.52
2023-01-07T05:12:23.872Z,100678.13
2023-01-07T05:14:54.351Z,100676.11
2023-01-07T05:17:24.691Z,100682.02
2023-01-07T05:19:55.429Z,100683.21
2023-01-07T05:22:25.613Z,100686.27
2023-01-07T05:24:56.433Z,100686.92
2023-01-07T05:27:27.308Z,100690.05
2023-01-07T05:29:57.872Z,100697.58
2023-01-07T05:32:28.272Z,100701.96
2023-01-07T05:34:59.140Z,100699.48
2023-01-07T05:37:29.701Z,100697.92
2023-01-07T05:40:00.644Z,100701.84
2023-01-07T05:42:30.921Z,100706.30
2023-01-07T05:45:01.422Z,100706.59
2023-01-07T05:47:31.515Z,100709.21
2023-01-07T05:50:01.387Z,100710.58
2023-01-07T05:52:31.723Z,100711.80
2023-01-07T05:55:02.092Z,100710.65
2023-01-07T05:57:33.109Z,100706.34
2023-01-07T06:00:04.402Z,100709.05
2023-01-07T06:02:41.702Z,100708.02
2023-01-07T06:05:12.233Z,100704.83
2023-01-07T06:07:42.471Z,100704.27
2023-01-07T06:10:12.758Z,100706.98
2023-01-07T06:12:43.051Z,100706.80
2023-01-07T06:15:14.090Z,100709.71
2023-01-07T06:17:44.370Z,100714.75
2023-01-07T06:20:15.341Z,100719.71
2023-01-07T06:22:46.214Z,100720.52
2023-01-07T06:25:17.116Z,100719.25
2023-01-07T06:27:47.257Z,100718.47
2023-01-07T06:30:17.572Z,100724.16
2023-01-07T06:32:47.941Z,100728.91
2023-01-07T06:35:18.129Z,100731.08
2023-01-07T06:37:48.025Z,100738.27
2023-01-07T06:40:18.776Z,100735.48
2023-01-07T06:42:49.344Z,100739.58
2023-01-07T06:45:19.827Z,100744.40
2023-01-07T06:47:49.872Z,100747.41
2023-01-07T06:50:20.085Z,100746.84
2023-01-07T06:52:50.870Z,100750.05
2023-01-07T06:55:21.168Z,100754.10
2023-01-07T06:57:51.297Z,100756.98
2023-01-07T07:00:22.297Z,100760.21
2023-01-07T07:02:52.497Z,100762.77
2023-01-07T07:05:23.104Z,100764.27
2023-01-07T07:07:53.346Z,100767.17
2023-01-07T07:10:24.403Z,100766.02
2023-01-07T07:12:54.723Z,100772.05
2023-01-07T07:15:25.038Z,100775.86
2023-01-07T07:17:55.107Z,100779.95
2023-01-07T07:20:25.497Z,100783.90
2023-01-07T07:22:56.164Z,100785.79
2023-01-07T07:25:26.781Z,100785.66
2023-01-07T07:27:57.224Z,100784.19
2023-01-07T07:30:46.188Z,100786.61
2023-01-07T07:33:19.236Z,100784.48
2023-01-07T07:35:49.724Z,100783.70
2023-01-07T07:38:20.179Z,100783.72
2023-01-07T07:40:50.572Z,100784.23
2023-01-07T07:43:20.799Z,100789.72
2023-01-07T07:45:51.279Z,100792.02
2023-01-07T07:48:21.602Z,100793.58
2023-01-07T07:50:53.124Z,100793.20
2023-01-07T07:53:23.578Z,100791.50
2023-01-07T07:55:53.998Z,100790.76
2023-01-07T07:58:24.655Z,100797.64
2023-01-07T08:00:55.318Z,100798.29
2023-01-07T08:03:25.969Z,100791.92
2023-01-07T08:05:56.214Z,100797.34
2023-01-07T08:08:26.611Z,100805.58
2023-01-07T08:10:57.373Z,100808.19
2023-01-07T08:13:28.168Z,100808.69
2023-01-07T08:15:58.701Z,100805.45
2023-01-07T08:18:28.998Z,100805.94
2023-01-07T08:20:59.312Z,100809.81
2023-01-07T08:23:30.822Z,100811.17
2023-01-07T08:26:02.584Z,100806.93
2023-01-07T08:28:33.269Z,100802.06
2023-01-07T08:31:04.199Z,100799.52
2023-01-07T08:33:37.226Z,100804.00
2023-01-07T08:36:22.131Z,100798.24
2023-01-07T08:38:55.115Z,100793.80
2023-01-07T08:41:27.003Z,100793.23
2023-01-07T08:43:57.470Z,100794.98
2023-01-07T08:46:27.818Z,100801.93
2023-01-07T08:48:58.071Z,100803.27
2023-01-07T08:51:28.524Z,100806.63
2023-01-07T08:53:58.707Z,100814.43
2023-01-07T08:56:29.097Z,100813.25
2023-01-07T08:58:59.971Z,100811.13
2023-01-07T09:01:30.770Z,100810.17
2023-01-07T09:04:01.347Z,100806.52
2023-01-07T09:06:31.391Z,100806.13
2023-01-07T09:09:01.559Z,100805.15
2023-01-07T09:11:32.309Z,100806.90
2023-01-07T09:14:02.578Z,100809.00
2023-01-07T09:16:32.973Z,100813.10
2023-01-07T09:19:03.336Z,100811.34
2023-01-07T09:21:33.667Z,100816.05
2023-01-07T09:24:03.967Z,100817.77
2023-01-07T09:26:34.220Z,100813.91
2023-01-07T09:29:04.979Z,100814.37
2023-01-07T09:31:35.622Z,100815.45
2023-01-07T09:34:06.644Z,100817.55
2023-01-07T09:36:36.743Z,100815.90
2023-01-07T09:39:07.057Z,100812.08
2023-01-07T09:41:45.795Z,100809.27
2023-01-07T09:44:19.902Z,100812.08
2023-01-07T09:46:52.421Z,100807.52
2023-01-07T09:49:26.609Z,100807.38
2023-01-07T09:52:02.361Z,100810.80
2023-01-07T09:54:36.903Z,100812.38
2023-01-07T09:57:09.201Z,100814.48
2023-01-07T09:59:39.480Z,100815.99
2023-01-07T10:02:28.808Z,100816.46
2023-01-07T10:05:17.800Z,100815.80
2023-01-07T10:07:54.000Z,100812.97
2023-01-07T10:10:52.740Z,100811.86
2023-01-07T10:13:44.609Z,100811.66
2023-01-07T10:16:24.332Z,100814.06
2023-01-07T10:19:03.151Z,100812.52
2023-01-07T10:21:37.883Z,100809.45
2023-01-07T10:24:16.920Z,100807.87
2023-01-07T10:26:51.507Z,100803.14
2023-01-07T10:29:30.280Z,100796.98
2023-01-07T10:32:07.538Z,100790.85
2023-01-07T10:34:44.466Z,100789.60
2023-01-07T10:37:23.245Z,100789.26
2023-01-07T10:40:01.120Z,100783.16
2023-01-07T10:42:37.865Z,100778.21
2023-01-07T10:45:22.726Z,100776.59
2023-01-07T10:48:23.996Z,100775.10
2023-01-07T10:51:07.267Z,100772.56
2023-01-07T10:53:51.784Z,100767.16
2023-01-07T10:56:28.685Z,100766.10
2023-01-07T10:58:59.826Z,100764.34
2023-01-07T11:01:35.348Z,100764.10
2023-01-07T11:04:12.214Z,100763.90
2023-01-07T11:06:49.468Z,100761.73
2023-01-07T11:09:24.106Z,100760.91
2023-01-07T11:11:55.889Z,100763.59
2023-01-07T11:14:31.018Z,100760.34
2023-01-07T11:17:08.054Z,100759.39
2023-01-07T11:19:48.647Z,100761.00
2023-01-07T11:22:33.751Z,100755.79
2023-01-07T11:25:29.340Z,100754.63
2023-01-07T11:28:02.219Z,100755.80
2023-01-07T11:30:33.825Z,100751.60
2023-01-07T11:33:05.836Z,100747.63
2023-01-07T11:35:37.198Z,100742.98
2023-01-07T11:38:27.917Z,100740.89
2023-01-07T11:41:00.905Z,100740.11
2023-01-07T11:43:34.353Z,100735.61
2023-01-07T11:46:21.134Z,100736.33
2023-01-07T11:48:57.847Z,100735.51
2023-01-07T11:51:38.602Z,100733.05
2023-01-07T11:54:21.273Z,100732.30
2023-01-07T11:56:54.194Z,100727.29
2023-01-07T11:59:30.520Z,100726.23
2023-01-07T12:02:01.096Z,100722.77
2023-01-07T12:04:33.263Z,100716.17
2023-01-07T12:07:07.967Z,100711.83
2023-01-07T12:09:40.121Z,100705.46
2023-01-07T12:12:41.370Z,100703.02
2023-01-07T12:15:21.065Z,100698.60
2023-01-07T12:18:17.456Z,100694.69
2023-01-07T12:21:35.437Z,100688.48
2023-01-07T12:24:27.988Z,100686.19
2023-01-07T12:27:04.003Z,100686.93
2023-01-07T12:29:45.947Z,100684.80
2023-01-07T12:32:30.185Z,100683.36
2023-01-07T12:35:14.313Z,100688.16
2023-01-07T12:37:51.162Z,100690.87
2023-01-07T12:40:31.180Z,100694.19
2023-01-07T12:43:10.349Z,100697.50
2023-01-07T12:45:45.024Z,100698.45
2023-01-07T12:48:21.693Z,100698.44
2023-01-07T12:50:55.887Z,100696.31
2023-01-07T12:53:35.080Z,100695.72
2023-01-07T12:56:14.271Z,100690.30
2023-01-07T12:58:48.012Z,100680.80
2023-01-07T13:01:26.989Z,100679.14
2023-01-07T13:04:09.365Z,100679.86
2023-01-07T13:06:46.914Z,100681.86
2023-01-07T13:09:29.918Z,100682.21
2023-01-07T13:12:42.177Z,100681.39
2023-01-07T13:15:20.386Z,100680.88
2023-01-07T13:17:54.016Z,100682.36
2023-01-07T13:20:44.907Z,100682.45
2023-01-07T13:23:24.594Z,100679.59
2023-01-07T13:26:14.915Z,100683.63
2023-01-07T13:29:05.198Z,100691.64
2023-01-07T13:31:55.011Z,100696.14
2023-01-07T13:34:37.389Z,100700.55
2023-01-07T13:37:24.474Z,100704.98
2023-01-07T13:40:16.841Z,100704.42
2023-01-07T13:42:53.399Z,100705.37
2023-01-07T13:45:27.029Z,100706.98
2023-01-07T13:47:59.277Z,100707.14
2023-01-07T13:50:35.801Z,100711.92
2023-01-07T13:53:08.271Z,100712.09
2023-01-07T13:55:41.417Z,100714.16
2023-01-07T13:58:44.266Z,100717.48
2023-01-07T14:01:15.862Z,100722.85
2023-01-07T14:03:50.581Z,100725.96
2023-01-07T14:06:38.945Z,100729.23
2023-01-07T14:09:16.070Z,100731.63
2023-01-07T14:12:01.580Z,100739.10
2023-01-07T14:14:42.900Z,100738.45
2023-01-07T14:17:21.397Z,100739.46
2023-01-07T14:20:00.930Z,100741.77
2023-01-07T14:22:39.063Z,100742.91
2023-01-07T14:25:40.900Z,100745.16
2023-01-07T14:28:47.776Z,100749.98
2023-01-07T14:31:26.274Z,100748.54
2023-01-07T14:33:59.353Z,100749.08
2023-01-07T14:37:14.569Z,100747.91
2023-01-07T14:39:46.219Z,100748.08
2023-01-07T14:42:42.315Z,100749.76
2023-01-07T14:45:47.390Z,100746.90
2023-01-07T14:48:35.896Z,100746.66
2023-01-07T14:51:12.620Z,100746.45
2023-01-07T14:54:02.238Z,100750.39
2023-01-07T14:56:51.210Z,100756.52
2023-01-07T14:59:45.545Z,100760.59
2023-01-07T15:02:48.751Z,100758.68
2023-01-07T15:06:01.456Z,100761.94
2023-01-07T15:09:04.341Z,100759.27
2023-01-07T15:11:55.066Z,100758.71
2023-01-07T15:14:48.338Z,100758.13
2023-01-07T15:17:19.162Z,100762.20
2023-01-07T15:19:49.726Z,100760.68
2023-01-07T15:22:35.769Z,100753.45
2023-01-07T15:25:18.115Z,100746.58
2023-01-07T15:27:56.017Z,100751.73
2023-01-07T15:30:40.847Z,100757.75
2023-01-07T15:33:46.714Z,100758.55
2023-01-07T15:36:18.141Z,100766.77
2023-01-07T15:38:52.458Z,100765.08
2023-01-07T15:41:32.520Z,100766.20
2023-01-07T15:44:05.113Z,100765.59
2023-01-07T15:46:39.792Z,100763.28
2023-01-07T15:49:18.944Z,100763.81
2023-01-07T15:51:50.574Z,100758.84
2023-01-07T15:54:42.266Z,100756.60
2023-01-07T15:57:20.069Z,100758.52
2023-01-07T15:59:52.339Z,100767.21
2023-01-07T16:02:27.207Z,100766.08
2023-01-07T16:05:01.146Z,100768.41
2023-01-07T16:07:34.513Z,100765.52
2023-01-07T16:10:06.951Z,100761.96
2023-01-07T16:12:38.721Z,100760.99
2023-01-07T16:15:30.620Z,100761.70
2023-01-07T16:18:03.109Z,100761.69
2023-01-07T16:20:36.250Z,100761.61
2023-01-07T16:23:20.793Z,100762.73
2023-01-07T16:25:55.359Z,100757.32
2023-01-07T16:28:29.989Z,100753.86
2023-01-07T16:31:01.115Z,100749.84
2023-01-07T16:33:35.239Z,100747.70
2023-01-07T16:36:11.733Z,100739.48
2023-01-07T16:38:44.076Z,100728.48
2023-01-07T16:41:23.213Z,100722.45
2023-01-07T16:43:55.445Z,100723.19
2023-01-07T16:46:27.948Z,100722.08
2023-01-07T16:49:27.456Z,100713.05
2023-01-07T16:52:07.103Z,100706.91
2023-01-07T16:54:39.788Z,100712.09
2023-01-07T16:57:32.975Z,100712.41
2023-01-07T17:00:06.422Z,100709.56
2023-01-07T17:02:39.876Z,100708.47
2023-01-07T17:05:18.968Z,100714.75
2023-01-07T17:07:52.610Z,100715.17
2023-01-07T17:10:27.458Z,100710.48
2023-01-07T17:13:00.806Z,100706.27
2023-01-07T17:15:39.494Z,100706.90
2023-01-07T17:18:29.705Z,100707.27
2023-01-07T17:21:01.000Z,100704.01
2023-01-07T17:23:42.064Z,100706.42
2023-01-07T17:26:21.546Z,100707.55
2023-01-07T17:28:54.257Z,100708.05
2023-01-07T17:31:25.199Z,100705.02
2023-01-07T17:33:56.301Z,100697.71
2023-01-07T17:36:28.006Z,100695.80
2023-01-07T17:38:58.759Z,100703.68
2023-01-07T17:41:48.054Z,100705.25
2023-01-07T17:44:18.911Z,100703.88
2023-01-07T17:46:49.480Z,100705.17
2023-01-07T17:49:20.660Z,100706.70
2023-01-07T17:51:53.193Z,100706.86
2023-01-07T17:54:27.176Z,100702.05
2023-01-07T17:56:58.729Z,100702.86
2023-01-07T17:59:31.463Z,100702.02
2023-01-07T18:02:02.322Z,100699.98
2023-01-07T18:04:33.245Z,100696.35
2023-01-07T18:07:03.597Z,100696.98
2023-01-07T18:09:33.877Z,100694.30
2023-01-07T18:12:22.321Z,100689.92
2023-01-07T18:14:55.206Z,100686.39
2023-01-07T18:17:25.572Z,100679.12
2023-01-07T18:19:56.504Z,100676.38
2023-01-07T18:22:27.113Z,100685.59
2023-01-07T18:24:57.474Z,100688.35
2023-01-07T18:27:28.149Z,100690.14
2023-01-07T18:29:58.358Z,100687.67
2023-01-07T18:32:28.585Z,100689.00
2023-01-07T18:34:58.755Z,100690.23
2023-01-07T18:37:28.817Z,100691.83
2023-01-07T18:40:01.891Z,100689.16
2023-01-07T18:42:33.956Z,100686.71
2023-01-07T18:45:05.983Z,100685.90
2023-01-07T18:47:36.611Z,100689.02
2023-01-07T18:50:08.574Z,100687.55
2023-01-07T18:52:40.148Z,100687.01
2023-01-07T18:55:11.662Z,100688.75
2023-01-07T18:57:41.985Z,100686.35
2023-01-07T19:00:14.808Z,100683.06
2023-01-07T19:02:45.507Z,100678.92
2023-01-07T19:05:16.188Z,100682.20
2023-01-07T19:07:46.246Z,100682.34
2023-01-07T19:10:16.474Z,100677.64
2023-01-07T19:12:46.695Z,100671.11
2023-01-07T19:15:17.170Z,100670.20
2023-01-07T19:17:49.402Z,100666.70
2023-01-07T19:20:19.909Z,100668.16
2023-01-07T19:22:50.584Z,100673.89
2023-01-07T19:25:21.269Z,100672.55
2023-01-07T19:27:51.830Z,100671.68
2023-01-07T19:30:22.177Z,100670.09
2023-01-07T19:32:56.276Z,100672.39
2023-01-07T19:35:26.549Z,100672.17
2023-01-07T19:37:57.259Z,100669.77
2023-01-07T19:40:27.197Z,100666.46
2023-01-07T19:42:57.590Z,100664.42
2023-01-07T19:45:28.057Z,100664.94
2023-01-07T19:47:58.844Z,100665.73
2023-01-07T19:50:29.350Z,100668.40
2023-01-07T19:53:00.374Z,100666.42
2023-01-07T19:55:31.066Z,100663.40
2023-01-07T19:58:02.928Z,100658.56
2023-01-07T20:00:33.482Z,100659.00
2023-01-07T20:03:05.489Z,100654.23
2023-01-07T20:05:35.850Z,100653.93
2023-01-07T20:08:07.145Z,100653.30
2023-01-07T20:10:37.411Z,100652.30
2023-01-07T20:13:07.772Z,100652.80
2023-01-07T20:15:37.912Z,100647.40
2023-01-07T20:18:08.204Z,100643.83
2023-01-07T20:20:38.867Z,100639.05
2023-01-07T20:23:09.017Z,100640.23
2023-01-07T20:25:43.315Z,100640.31
2023-01-07T20:28:13.809Z,100641.52
2023-01-07T20:30:44.742Z,100642.98
2023-01-07T20:33:15.852Z,100638.25
2023-01-07T20:35:46.602Z,100635.60
2023-01-07T20:38:17.299Z,100636.23
2023-01-07T20:40:47.419Z,100635.98
2023-01-07T20:43:19.220Z,100634.94
2023-01-07T20:45:49.533Z,100635.73
2023-01-07T20:48:20.106Z,100632.61
2023-01-07T20:50:50.575Z,100631.52
2023-01-07T20:53:20.858Z,100636.02
2023-01-07T20:55:57.501Z,100633.80
2023-01-07T20:58:27.716Z,100635.80
2023-01-07T21:00:58.127Z,100634.72
2023-01-07T21:03:28.095Z,100632.52
2023-01-07T21:05:58.733Z,100628.81
2023-01-07T21:08:29.205Z,100627.85
2023-01-07T21:10:59.921Z,100631.05
2023-01-07T21:13:30.371Z,100633.09
2023-01-07T21:16:03.682Z,100634.33
2023-01-07T21:18:34.689Z,100639.36
2023-01-07T21:21:10.835Z,100638.98
2023-01-07T21:23:41.871Z,100637.43
2023-01-07T21:26:13.099Z,100630.53
2023-01-07T21:28:44.404Z,100631.06
2023-01-07T21:31:16.543Z,100627.20
2023-01-07T21:33:47.081Z,100626.95
2023-01-07T21:36:19.435Z,100626.42
2023-01-07T21:38:54.327Z,100621.86
2023-01-07T21:41:25.505Z,100621.91
2023-01-07T21:43:56.132Z,100620.95
2023-01-07T21:46:26.523Z,100622.19
2023-01-07T21:48:57.234Z,100624.09
2023-01-07T21:51:29.663Z,100623.23
2023-01-07T21:54:00.230Z,100625.09
2023-01-07T21:56:32.489Z,100623.94
2023-01-07T21:59:03.214Z,100626.61
2023-01-07T22:01:34.054Z,100623.05
2023-01-07T22:04:04.807Z,100622.63
2023-01-07T22:06:36.967Z,100621.09
2023-01-07T22:09:09.193Z,100618.77
2023-01-07T22:11:41.050Z,100618.21
2023-01-07T22:14:14.066Z,100619.05
2023-01-07T22:16:45.861Z,100615.14
2023-01-07T22:19:18.186Z,100612.82
2023-01-07T22:21:48.372Z,100615.48
2023-01-07T22:24:19.726Z,100614.08
2023-01-07T22:26:50.378Z,100606.45
2023-01-07T22:29:20.771Z,100605.54
2023-01-07T22:31:52.399Z,100606.58
2023-01-07T22:34:23.347Z,100608.63
2023-01-07T22:36:59.803Z,100604.36
2023-01-07T22:39:36.585Z,100606.20
2023-01-07T22:42:11.998Z,100606.90
2023-01-07T22:44:47.100Z,100606.77
2023-01-07T22:47:21.354Z,100605.52
2023-01-07T22:49:53.116Z,100606.81
2023-01-07T22:52:23.816Z,100604.52
2023-01-07T22:54:54.413Z,100598.41
2023-01-07T22:57:25.052Z,100596.45
2023-01-07T22:59:55.398Z,100597.27
2023-01-07T23:02:25.845Z,100598.02
2023-01-07T23:04:56.633Z,100593.61
2023-01-07T23:07:27.188Z,100590.20
2023-01-07T23:09:57.525Z,100590.29
2023-01-07T23:12:27.625Z,100589.41
2023-01-07T23:14:57.940Z,100582.43
2023-01-07T23:17:28.515Z,100583.09
2023-01-07T23:19:58.953Z,100584.46
2023-01-07T23:22:29.040Z,100581.64
2023-01-07T23:24:59.393Z,100581.52
2023-01-07T23:27:29.607Z,100582.07
2023-01-07T23:29:59.859Z,100579.78
2023-01-07T23:32:30.377Z,100583.20
2023-01-07T23:35:00.425Z,100579.87
2023-01-07T23:37:30.855Z,100575.30
2023-01-07T23:40:01.417Z,100572.14
2023-01-07T23:42:31.718Z,100572.23
2023-01-07T23:45:03.671Z,100570.08
2023-01-07T23:47:33.969Z,100565.54
2023-01-07T23:50:04.086Z,100559.14
2023-01-07T23:52:34.626Z,100558.73
2023-01-07T23:55:06.672Z,100558.31
2023-01-07T23:57:36.759Z,100554.77
